Time;durP1;ratioP1;P1;durP2;ratioP2;P2;SDS_P1;SDS_P2;PMS_P1;PMS_P2;Temp;Humidity;BMP_temperature;BMP_pressure;BME280_temperature;BME280_humidity;BME280_pressure;Samples;Min_cycle;Max_cycle;Signal;HPM_P1;HPM_P2
2021/10/10 09:01:11;;;;;;;0.50;0.50;;;;;;;;;;7369061;19;132490;-13
2021/10/10 09:03:40;;;;;;;0.60;0.60;;;;;;;;;;7364656;19;153797;-16
2021/10/10 09:06:08;;;;;;;0.50;0.50;;;;;;;;;;7364539;19;161828;-14
2021/10/10 09:08:36;;;;;;;0.40;0.40;;;;;;;;;;7363743;19;162204;-14
2021/10/10 09:11:05;;;;;;;0.52;0.50;;;;;;;;;;7368110;19;154037;-12
2021/10/10 09:13:34;;;;;;;0.40;0.40;;;;;;;;;;7364628;19;153795;-15
2021/10/10 09:16:04;;;;;;;0.40;0.38;;;;;;;;;;7363812;19;161846;-12
2021/10/10 09:18:40;;;;;;;0.50;0.50;;;;;;;;;;7363741;19;162341;-15
2021/10/10 09:21:19;;;;;;;0.50;0.50;;;;;;;;;;7366375;19;153882;-15
2021/10/10 09:23:50;;;;;;;0.40;0.40;;;;;;;;;;7367614;19;153285;-14
2021/10/10 09:26:19;;;;;;;1.02;0.40;;;;;;;;;;7363830;19;161868;-13
2021/10/10 09:28:48;;;;;;;0.40;0.40;;;;;;;;;;7361987;19;162566;-13
2021/10/10 09:31:17;;;;;;;0.68;0.50;;;;;;;;;;7365995;19;153997;-14
2021/10/10 09:33:57;;;;;;;0.40;0.40;;;;;;;;;;7366825;19;153763;-14
2021/10/10 09:36:28;;;;;;;0.95;0.60;;;;;;;;;;7366942;19;161845;-13
2021/10/10 09:43:59;;;;;;;0.40;0.40;;;;;;;;;;7366811;19;153534;-13
2021/10/10 09:46:29;;;;;;;0.73;0.60;;;;;;;;;;7367384;19;162064;-15
2021/10/10 09:48:58;;;;;;;0.57;0.50;;;;;;;;;;7365856;19;162359;-15
2021/10/10 09:51:32;;;;;;;0.40;0.40;;;;;;;;;;7364413;19;153990;-13
2021/10/10 09:54:01;;;;;;;0.40;0.40;;;;;;;;;;7363875;19;153591;-12
2021/10/10 09:56:30;;;;;;;0.93;0.70;;;;;;;;;;7366462;19;161950;-13
2021/10/10 09:58:58;;;;;;;0.65;0.50;;;;;;;;;;7365192;19;162373;-16
2021/10/10 10:01:29;;;;;;;0.90;0.63;;;;;;;;;;7344885;19;153945;-16
2021/10/10 10:04:08;;;;;;;1.25;0.60;;;;;;;;;;7335312;19;153547;-13
2021/10/10 10:06:38;;;;;;;0.63;0.60;;;;;;;;;;7337289;19;161962;-15
2021/10/10 10:09:10;;;;;;;1.23;0.70;;;;;;;;;;7336183;19;162446;-16
2021/10/10 10:11:41;;;;;;;1.67;0.60;;;;;;;;;;7334790;19;154197;-13
2021/10/10 10:14:11;;;;;;;1.10;0.57;;;;;;;;;;7336512;19;153744;-16
2021/10/10 10:16:41;;;;;;;0.70;0.70;;;;;;;;;;7334928;19;162021;-13
2021/10/10 10:19:11;;;;;;;0.80;0.80;;;;;;;;;;7335089;19;161967;-16
2021/10/10 10:21:39;;;;;;;0.60;0.60;;;;;;;;;;7334306;19;153935;-14
2021/10/10 10:24:11;;;;;;;0.70;0.70;;;;;;;;;;7335765;19;153609;-13
2021/10/10 10:26:40;;;;;;;0.57;0.57;;;;;;;;;;7336227;19;161825;-12
2021/10/10 10:29:23;;;;;;;0.43;0.43;;;;;;;;;;7331872;19;162614;-14
2021/10/10 10:31:54;;;;;;;0.60;0.60;;;;;;;;;;7336518;19;154186;-14
2021/10/10 10:34:33;;;;;;;0.60;0.60;;;;;;;;;;7336464;19;153510;-17
2021/10/10 10:37:09;;;;;;;0.45;0.45;;;;;;;;;;7335981;19;162184;-14
2021/10/10 10:39:50;;;;;;;0.57;0.57;;;;;;;;;;7335908;19;162620;-16
2021/10/10 10:42:25;;;;;;;0.50;0.50;;;;;;;;;;7336362;19;154001;-16
2021/10/10 10:44:55;;;;;;;0.98;0.82;;;;;;;;;;7335405;19;153868;-15
2021/10/10 10:47:35;;;;;;;0.50;0.50;;;;;;;;;;7336715;19;162049;-13
2021/10/10 10:50:05;;;;;;;0.50;0.50;;;;;;;;;;7330473;19;162348;-14
2021/10/10 10:52:39;;;;;;;0.70;0.50;;;;;;;;;;7335048;19;154144;-12
2021/10/10 10:55:18;;;;;;;0.68;0.68;;;;;;;;;;7329259;19;153689;-15
2021/10/10 10:57:51;;;;;;;1.48;0.60;;;;;;;;;;7328125;19;161841;-14
2021/10/10 11:00:30;;;;;;;0.60;0.60;;;;;;;;;;7330328;19;162516;-16
2021/10/10 11:02:58;;;;;;;0.40;0.40;;;;;;;;;;7332596;19;153945;-17
2021/10/10 11:05:28;;;;;;;0.73;0.70;;;;;;;;;;7331987;19;153558;-13
2021/10/10 11:08:01;;;;;;;0.77;0.77;;;;;;;;;;7330319;19;161866;-12
2021/10/10 11:10:30;;;;;;;0.63;0.63;;;;;;;;;;7329071;19;162634;-12
2021/10/10 11:13:04;;;;;;;0.68;0.68;;;;;;;;;;7330125;19;153971;-12
2021/10/10 11:15:53;;;;;;;0.50;0.50;;;;;;;;;;7332581;19;153641;-14
2021/10/10 11:18:23;;;;;;;0.50;0.50;;;;;;;;;;7332170;19;162093;-15
2021/10/10 11:21:06;;;;;;;0.50;0.50;;;;;;;;;;7332143;19;162375;-12
2021/10/10 11:23:36;;;;;;;0.57;0.57;;;;;;;;;;7332494;19;153953;-14
2021/10/10 11:26:07;;;;;;;0.50;0.50;;;;;;;;;;7331013;19;153720;-17
2021/10/10 11:28:47;;;;;;;0.50;0.50;;;;;;;;;;7332015;19;161902;-14
2021/10/10 11:31:24;;;;;;;0.52;0.52;;;;;;;;;;7328299;19;162383;-12
2021/10/10 11:34:01;;;;;;;0.50;0.50;;;;;;;;;;7332223;19;154130;-15
2021/10/10 11:36:37;;;;;;;0.50;0.50;;;;;;;;;;7332093;19;153558;-17
2021/10/10 11:39:18;;;;;;;0.40;0.40;;;;;;;;;;7331870;19;161920;-16
2021/10/10 11:41:57;;;;;;;0.60;0.60;;;;;;;;;;7330213;19;162343;-16
2021/10/10 11:44:46;;;;;;;0.50;0.50;;;;;;;;;;7331911;19;153949;-14
2021/10/10 11:47:29;;;;;;;0.40;0.40;;;;;;;;;;7331659;19;153482;-16
2021/10/10 11:50:00;;;;;;;0.40;0.40;;;;;;;;;;7328908;19;161886;-16
2021/10/10 11:52:32;;;;;;;0.50;0.50;;;;;;;;;;7331263;19;162342;-13
2021/10/10 11:55:04;;;;;;;0.50;0.50;;;;;;;;;;7331043;19;154141;-15
2021/10/10 11:57:31;;;;;;;0.50;0.50;;;;;;;;;;7331410;19;153547;-15
2021/10/10 12:00:02;;;;;;;0.70;0.50;;;;;;;;;;7329337;19;161877;-14
2021/10/10 12:02:41;;;;;;;0.50;0.50;;;;;;;;;;7330819;19;162432;-14
2021/10/10 12:05:11;;;;;;;0.50;0.50;;;;;;;;;;7331028;19;153920;-15
2021/10/10 12:07:41;;;;;;;0.47;0.47;;;;;;;;;;7329982;19;153549;-16
2021/10/10 12:10:12;;;;;;;0.52;0.52;;;;;;;;;;7328639;19;162247;-16
2021/10/10 12:12:40;;;;;;;0.50;0.50;;;;;;;;;;7330962;19;162386;-13
2021/10/10 12:15:09;;;;;;;0.47;0.47;;;;;;;;;;7331021;19;153915;-15
2021/10/10 12:17:39;;;;;;;0.40;0.40;;;;;;;;;;7330770;19;153648;-13
2021/10/10 12:20:16;;;;;;;0.65;0.65;;;;;;;;;;7330262;19;161860;-14
2021/10/10 12:22:53;;;;;;;1.05;0.60;;;;;;;;;;7330105;19;162470;-17
2021/10/10 12:25:30;;;;;;;0.50;0.50;;;;;;;;;;7329891;19;154239;-15
2021/10/10 12:28:04;;;;;;;0.70;0.70;;;;;;;;;;7330354;19;153585;-16
2021/10/10 12:30:52;;;;;;;0.57;0.55;;;;;;;;;;7328780;19;161991;-16
2021/10/10 12:33:28;;;;;;;0.82;0.70;;;;;;;;;;7329991;19;162607;-15
2021/10/10 12:36:00;;;;;;;0.52;0.52;;;;;;;;;;7329016;19;154082;-14
2021/10/10 12:38:39;;;;;;;0.60;0.50;;;;;;;;;;7330054;19;153517;-14
2021/10/10 12:41:22;;;;;;;0.50;0.50;;;;;;;;;;7329596;19;161910;-15
2021/10/10 12:43:51;;;;;;;0.52;0.52;;;;;;;;;;7329629;19;162644;-17
2021/10/10 12:46:21;;;;;;;0.45;0.45;;;;;;;;;;7330004;19;154444;-18
2021/10/10 12:49:01;;;;;;;0.50;0.50;;;;;;;;;;7330084;19;153514;-13
2021/10/10 12:51:29;;;;;;;0.57;0.55;;;;;;;;;;7327277;19;161927;-15
2021/10/10 12:54:17;;;;;;;0.40;0.40;;;;;;;;;;7329234;19;162585;-15
2021/10/10 12:57:04;;;;;;;0.60;0.60;;;;;;;;;;7329610;19;153960;-14
2021/10/10 12:59:33;;;;;;;0.40;0.40;;;;;;;;;;7328909;19;153802;-15
2021/10/10 13:02:01;;;;;;;0.50;0.50;;;;;;;;;;7329095;19;161887;-16
2021/10/10 13:04:29;;;;;;;0.40;0.40;;;;;;;;;;7327994;19;162376;-14
2021/10/10 13:06:57;;;;;;;0.57;0.57;;;;;;;;;;7329191;19;153939;-13
2021/10/10 13:09:25;;;;;;;0.50;0.50;;;;;;;;;;7328956;19;153945;-16
2021/10/10 13:11:55;;;;;;;0.50;0.50;;;;;;;;;;7326188;19;161981;-16
2021/10/10 13:14:26;;;;;;;0.40;0.40;;;;;;;;;;7328693;19;162345;-15
2021/10/10 13:16:56;;;;;;;0.57;0.57;;;;;;;;;;7329268;19;153989;-15
2021/10/10 13:19:24;;;;;;;0.40;0.40;;;;;;;;;;7328149;19;153578;-14
2021/10/10 13:21:52;;;;;;;0.70;0.57;;;;;;;;;;7328224;19;161988;-16
2021/10/10 13:24:22;;;;;;;0.50;0.50;;;;;;;;;;7327295;19;162644;-13
2021/10/10 13:26:50;;;;;;;0.60;0.60;;;;;;;;;;7328767;19;153983;-15
2021/10/10 13:29:18;;;;;;;0.50;0.50;;;;;;;;;;7328609;19;153526;-13
2021/10/10 13:31:51;;;;;;;0.50;0.50;;;;;;;;;;7325997;19;162076;-13
2021/10/10 13:34:19;;;;;;;0.57;0.57;;;;;;;;;;7328042;19;162339;-13
2021/10/10 13:36:51;;;;;;;0.50;0.50;;;;;;;;;;7337139;19;154289;-16
2021/10/10 13:39:21;;;;;;;2.10;0.40;;;;;;;;;;7334767;19;153746;-14
2021/10/10 13:41:49;;;;;;;0.82;0.50;;;;;;;;;;7334016;19;161971;-15
2021/10/10 13:44:17;;;;;;;0.60;0.60;;;;;;;;;;7333815;19;162569;-14
2021/10/10 13:46:45;;;;;;;1.15;0.60;;;;;;;;;;7334607;19;154154;-13
2021/10/10 13:49:13;;;;;;;0.50;0.50;;;;;;;;;;7334207;19;154247;-13
2021/10/10 13:51:40;;;;;;;0.50;0.50;;;;;;;;;;7332443;19;161942;-16
2021/10/10 13:54:08;;;;;;;0.40;0.40;;;;;;;;;;7334309;19;162375;-14
2021/10/10 13:56:36;;;;;;;0.85;0.52;;;;;;;;;;7331981;19;154084;-15
2021/10/10 13:59:04;;;;;;;0.52;0.52;;;;;;;;;;7330448;19;153990;-15
2021/10/10 14:01:33;;;;;;;0.50;0.50;;;;;;;;;;7325104;19;161835;-15
2021/10/10 14:04:01;;;;;;;0.60;0.60;;;;;;;;;;7336274;19;162676;-16
2021/10/10 14:06:29;;;;;;;0.98;0.60;;;;;;;;;;7336155;19;154136;-15
2021/10/10 14:08:58;;;;;;;0.60;0.60;;;;;;;;;;7336685;19;153722;-16
2021/10/10 14:11:26;;;;;;;0.60;0.60;;;;;;;;;;7335806;19;161871;-14
2021/10/10 14:13:55;;;;;;;1.00;0.80;;;;;;;;;;7331585;19;162586;-13
2021/10/10 14:16:22;;;;;;;1.30;0.60;;;;;;;;;;7336748;19;154111;-15
2021/10/10 14:18:52;;;;;;;1.20;0.60;;;;;;;;;;7333845;19;153656;-16
2021/10/10 14:21:20;;;;;;;0.90;0.60;;;;;;;;;;7334544;19;161821;-16
2021/10/10 14:23:48;;;;;;;0.45;0.45;;;;;;;;;;7334737;19;162551;-15
2021/10/10 14:26:16;;;;;;;0.50;0.50;;;;;;;;;;7334846;19;153994;-15
2021/10/10 14:28:44;;;;;;;0.47;0.47;;;;;;;;;;7333321;19;153636;-16
2021/10/10 14:31:12;;;;;;;0.40;0.40;;;;;;;;;;7331828;19;161984;-15
2021/10/10 14:33:40;;;;;;;1.35;0.57;;;;;;;;;;7331673;19;162519;-14
2021/10/10 14:36:07;;;;;;;1.05;0.50;;;;;;;;;;7333355;19;153978;-16
2021/10/10 14:38:35;;;;;;;0.68;0.57;;;;;;;;;;7332939;19;153502;-16
2021/10/10 14:41:15;;;;;;;1.00;0.43;;;;;;;;;;7333806;19;161807;-14
2021/10/10 14:43:49;;;;;;;0.40;0.40;;;;;;;;;;7327381;19;162485;-24
2021/10/10 14:46:17;;;;;;;0.70;0.55;;;;;;;;;;7334521;19;154043;-17
2021/10/10 14:48:45;;;;;;;0.85;0.50;;;;;;;;;;7332549;19;153354;-16
2021/10/10 14:51:14;;;;;;;0.57;0.40;;;;;;;;;;7331457;19;161871;-15
2021/10/10 14:53:42;;;;;;;0.38;0.38;;;;;;;;;;7331864;19;162493;-15
2021/10/10 14:56:10;;;;;;;0.60;0.60;;;;;;;;;;7329541;19;154504;-18
2021/10/10 14:58:38;;;;;;;0.40;0.40;;;;;;;;;;7335661;19;153605;-17
2021/10/10 15:01:06;;;;;;;0.93;0.40;;;;;;;;;;7329491;19;161864;-15
2021/10/10 15:03:34;;;;;;;0.40;0.40;;;;;;;;;;7333512;19;162506;-16
2021/10/10 15:06:02;;;;;;;0.50;0.50;;;;;;;;;;7332178;19;154242;-16
2021/10/10 15:08:30;;;;;;;0.40;0.40;;;;;;;;;;7332392;19;153630;-16
2021/10/10 15:10:58;;;;;;;0.35;0.35;;;;;;;;;;7330983;19;162423;-16
2021/10/10 15:13:26;;;;;;;0.52;0.52;;;;;;;;;;7331465;19;162367;-16
2021/10/10 15:15:54;;;;;;;2.80;0.65;;;;;;;;;;7331053;19;154141;-16
2021/10/10 15:18:22;;;;;;;0.52;0.40;;;;;;;;;;7332783;19;153675;-17
2021/10/10 15:20:50;;;;;;;0.50;0.50;;;;;;;;;;7330444;19;161827;-14
2021/10/10 15:23:18;;;;;;;0.52;0.52;;;;;;;;;;7335899;19;162624;-17
2021/10/10 15:25:46;;;;;;;0.57;0.57;;;;;;;;;;7331395;19;153972;-15
2021/10/10 15:28:14;;;;;;;0.55;0.55;;;;;;;;;;7332268;19;153795;-16
2021/10/10 15:30:42;;;;;;;1.10;0.50;;;;;;;;;;7329613;19;162579;-16
2021/10/10 15:33:21;;;;;;;0.40;0.40;;;;;;;;;;7330910;19;162378;-14
2021/10/10 15:35:51;;;;;;;0.50;0.50;;;;;;;;;;7331667;19;154508;-15
2021/10/10 15:38:19;;;;;;;1.85;0.50;;;;;;;;;;7331487;19;153761;-16
2021/10/10 15:40:48;;;;;;;0.50;0.50;;;;;;;;;;7331084;19;161862;-13
2021/10/10 15:43:17;;;;;;;0.40;0.40;;;;;;;;;;7330913;19;162464;-17
2021/10/10 15:45:45;;;;;;;0.40;0.40;;;;;;;;;;7331153;19;154151;-16
2021/10/10 15:48:13;;;;;;;0.40;0.40;;;;;;;;;;7331218;19;153548;-15
2021/10/10 15:50:41;;;;;;;0.93;0.43;;;;;;;;;;7329569;19;161972;-18
2021/10/10 15:53:10;;;;;;;0.50;0.50;;;;;;;;;;7329364;19;162392;-16
2021/10/10 15:55:37;;;;;;;0.40;0.40;;;;;;;;;;7331422;19;154127;-15
2021/10/10 15:58:05;;;;;;;0.52;0.40;;;;;;;;;;7329395;19;153739;-14
2021/10/10 16:00:34;;;;;;;0.30;0.30;;;;;;;;;;7328387;19;161905;-17
2021/10/10 16:03:03;;;;;;;0.47;0.47;;;;;;;;;;7325602;19;162393;-17
2021/10/10 16:05:31;;;;;;;0.40;0.40;;;;;;;;;;7332672;19;153984;-25
2021/10/10 16:08:00;;;;;;;0.55;0.50;;;;;;;;;;7333978;19;153768;-14
2021/10/10 16:10:28;;;;;;;0.47;0.47;;;;;;;;;;7328533;19;162161;-16
2021/10/10 16:12:56;;;;;;;0.35;0.35;;;;;;;;;;7327951;19;162353;-17
2021/10/10 16:15:24;;;;;;;0.50;0.50;;;;;;;;;;7330611;19;153964;-15
2021/10/10 16:17:53;;;;;;;0.40;0.40;;;;;;;;;;7330731;19;153552;-17
2021/10/10 16:20:24;;;;;;;0.50;0.50;;;;;;;;;;7330335;19;161994;-16
2021/10/10 16:22:54;;;;;;;0.50;0.50;;;;;;;;;;7330046;19;162667;-17
2021/10/10 16:25:24;;;;;;;0.40;0.40;;;;;;;;;;7330434;19;154258;-16
2021/10/10 16:27:54;;;;;;;0.50;0.50;;;;;;;;;;7330429;19;153655;-13
2021/10/10 16:30:22;;;;;;;0.65;0.40;;;;;;;;;;7329767;19;161793;-14
2021/10/10 16:32:52;;;;;;;0.68;0.68;;;;;;;;;;7327635;19;162505;-15
2021/10/10 16:43:57;;;;;;;;;;;;;;;;;;7329016;19;162530;-17
2021/10/10 16:46:24;;;;;;;0.40;0.40;;;;;;;;;;7327457;19;154328;-14
2021/10/10 16:48:52;;;;;;;0.43;0.43;;;;;;;;;;7332222;19;153696;-17
2021/10/10 16:51:20;;;;;;;0.38;0.38;;;;;;;;;;7328525;19;161778;-15
2021/10/10 16:53:48;;;;;;;0.40;0.40;;;;;;;;;;7328329;19;162373;-14
2021/10/10 16:56:16;;;;;;;0.50;0.50;;;;;;;;;;7328843;19;154326;-16
2021/10/10 16:58:44;;;;;;;0.30;0.30;;;;;;;;;;7329054;19;153526;-14
2021/10/10 17:01:12;;;;;;;0.40;0.40;;;;;;;;;;7325430;19;162080;-14
2021/10/10 17:03:40;;;;;;;0.40;0.40;;;;;;;;;;7326536;19;162633;-16
2021/10/10 17:06:07;;;;;;;0.45;0.40;;;;;;;;;;7328521;19;155410;-16
2021/10/10 17:08:35;;;;;;;0.40;0.40;;;;;;;;;;7331512;19;153600;-15
2021/10/10 17:11:03;;;;;;;0.40;0.40;;;;;;;;;;7334460;19;161667;-16
2021/10/10 17:13:32;;;;;;;0.43;0.43;;;;;;;;;;7336019;19;162653;-12
2021/10/10 17:15:59;;;;;;;0.30;0.30;;;;;;;;;;7338647;19;154261;-12
2021/10/10 17:18:28;;;;;;;0.30;0.30;;;;;;;;;;7338402;19;153605;-13
2021/10/10 17:20:56;;;;;;;0.40;0.40;;;;;;;;;;7336601;19;161840;-14
2021/10/10 17:23:24;;;;;;;0.30;0.30;;;;;;;;;;7337518;19;162451;-16
2021/10/10 17:25:51;;;;;;;0.40;0.40;;;;;;;;;;7338007;19;154124;-14
2021/10/10 17:28:19;;;;;;;0.40;0.40;;;;;;;;;;7338159;19;153677;-13
2021/10/10 17:30:47;;;;;;;0.40;0.40;;;;;;;;;;7336296;19;161922;-15
2021/10/10 17:33:15;;;;;;;0.43;0.43;;;;;;;;;;7335397;19;162420;-16
2021/10/10 17:35:44;;;;;;;0.40;0.40;;;;;;;;;;7337137;19;154387;-15
2021/10/10 17:38:11;;;;;;;0.50;0.50;;;;;;;;;;7338225;19;153597;-14
2021/10/10 17:40:42;;;;;;;0.43;0.43;;;;;;;;;;7337403;19;161954;-14
2021/10/10 17:43:11;;;;;;;0.30;0.30;;;;;;;;;;7337000;19;162648;-15
2021/10/10 17:45:40;;;;;;;0.85;0.40;;;;;;;;;;7338527;19;154000;-15
2021/10/10 17:48:08;;;;;;;0.40;0.40;;;;;;;;;;7334430;19;153582;-13
2021/10/10 17:50:36;;;;;;;0.30;0.30;;;;;;;;;;7336936;19;161986;-14
2021/10/10 17:53:04;;;;;;;0.35;0.32;;;;;;;;;;7335404;19;162597;-16
2021/10/10 17:55:33;;;;;;;0.40;0.40;;;;;;;;;;7336606;19;154135;-12
2021/10/10 17:58:09;;;;;;;0.50;0.40;;;;;;;;;;7335719;19;153821;-15
2021/10/10 18:11:58;;;;;;;0.40;0.40;;;;;;;;;;7333092;19;162040;-15
2021/10/10 18:14:26;;;;;;;0.70;0.70;;;;;;;;;;7333190;19;162355;-16
2021/10/10 18:17:02;;;;;;;0.55;0.55;;;;;;;;;;7334027;19;154073;-13
2021/10/10 18:19:31;;;;;;;0.50;0.50;;;;;;;;;;7332677;19;153774;-13
2021/10/10 18:21:59;;;;;;;0.70;0.60;;;;;;;;;;7331969;19;161844;-13
2021/10/10 18:24:28;;;;;;;0.50;0.50;;;;;;;;;;7332919;19;162526;-13
2021/10/10 18:26:56;;;;;;;1.55;0.82;;;;;;;;;;7333182;19;153960;-15
2021/10/10 18:29:24;;;;;;;1.00;0.90;;;;;;;;;;7331932;19;153537;-16
2021/10/10 18:31:52;;;;;;;2.03;0.90;;;;;;;;;;7332528;19;162115;-15
2021/10/10 18:34:20;;;;;;;0.93;0.60;;;;;;;;;;7331367;19;162486;-16
2021/10/10 18:36:48;;;;;;;2.55;1.92;;;;;;;;;;7333368;19;154158;-14
2021/10/10 18:39:16;;;;;;;3.85;3.50;;;;;;;;;;7333212;19;153545;-17
2021/10/10 18:41:45;;;;;;;3.00;2.80;;;;;;;;;;7332875;19;161941;-17
2021/10/10 18:44:13;;;;;;;2.25;1.50;;;;;;;;;;7332789;19;162431;-15
2021/10/10 18:46:41;;;;;;;1.17;1.17;;;;;;;;;;7332900;19;153991;-14
2021/10/10 18:49:11;;;;;;;1.00;1.00;;;;;;;;;;7331667;19;153527;-17
2021/10/10 18:51:40;;;;;;;1.20;1.13;;;;;;;;;;7332657;19;162250;-14
2021/10/10 18:54:08;;;;;;;1.23;1.20;;;;;;;;;;7329938;19;162550;-12
2021/10/10 18:56:36;;;;;;;1.13;1.13;;;;;;;;;;7332389;19;154005;-16
2021/10/10 18:59:04;;;;;;;1.20;1.20;;;;;;;;;;7333353;19;154000;-13
2021/10/10 19:01:32;;;;;;;2.08;1.20;;;;;;;;;;7331296;19;161862;-16
2021/10/10 19:04:00;;;;;;;1.00;1.00;;;;;;;;;;7334309;19;162508;-16
2021/10/10 19:06:29;;;;;;;1.23;1.10;;;;;;;;;;7333390;19;154425;-17
2021/10/10 19:09:03;;;;;;;1.60;1.10;;;;;;;;;;7330907;19;153597;-14
2021/10/10 19:11:32;;;;;;;1.10;1.10;;;;;;;;;;7331786;19;161790;-13
2021/10/10 19:14:01;;;;;;;1.30;1.20;;;;;;;;;;7327958;19;163845;-17
2021/10/10 19:16:42;;;;;;;1.00;1.00;;;;;;;;;;7332100;19;154213;-16
2021/10/10 19:19:10;;;;;;;1.17;1.17;;;;;;;;;;7331987;19;153685;-14
2021/10/10 19:21:39;;;;;;;1.10;1.00;;;;;;;;;;7330242;19;162022;-17
2021/10/10 19:24:07;;;;;;;1.20;1.10;;;;;;;;;;7330052;19;162329;-16
2021/10/10 19:26:34;;;;;;;1.40;1.30;;;;;;;;;;7331439;19;154123;-17
2021/10/10 19:29:02;;;;;;;1.00;1.00;;;;;;;;;;7331648;19;153594;-16
2021/10/10 19:31:31;;;;;;;1.48;1.38;;;;;;;;;;7335274;19;161888;-17
2021/10/10 19:34:02;;;;;;;1.00;1.00;;;;;;;;;;7326643;19;162453;-15
2021/10/10 19:36:31;;;;;;;1.02;1.02;;;;;;;;;;7333240;19;153995;-14
2021/10/10 19:38:59;;;;;;;0.80;0.80;;;;;;;;;;7332459;19;153584;-14
2021/10/10 19:41:27;;;;;;;1.08;1.08;;;;;;;;;;7333629;19;161806;-16
2021/10/10 19:43:55;;;;;;;1.00;1.00;;;;;;;;;;7329697;19;162588;-18
2021/10/10 19:46:23;;;;;;;0.90;0.90;;;;;;;;;;7333635;19;154102;-22
2021/10/10 19:48:51;;;;;;;1.13;1.10;;;;;;;;;;7331072;19;153935;-17
2021/10/10 19:51:24;;;;;;;1.90;1.10;;;;;;;;;;7330730;19;162578;-15
2021/10/10 19:53:53;;;;;;;1.10;1.10;;;;;;;;;;7330438;19;162408;-16
2021/10/10 19:56:25;;;;;;;0.80;0.80;;;;;;;;;;7333117;19;154091;-15
2021/10/10 19:58:54;;;;;;;0.90;0.90;;;;;;;;;;7332674;19;153757;-13
2021/10/10 20:01:22;;;;;;;0.90;0.90;;;;;;;;;;7330112;19;161686;-16
2021/10/10 20:03:50;;;;;;;0.80;0.80;;;;;;;;;;7331744;19;162686;-14
2021/10/10 20:06:19;;;;;;;1.00;1.00;;;;;;;;;;7333673;19;154116;-16
2021/10/10 20:08:51;;;;;;;1.00;1.00;;;;;;;;;;7333599;19;153529;-15
2021/10/10 20:11:19;;;;;;;0.90;0.90;;;;;;;;;;7332364;19;161988;-16
2021/10/10 20:13:47;;;;;;;1.00;1.00;;;;;;;;;;7328790;19;162671;-16
2021/10/10 20:16:16;;;;;;;0.90;0.90;;;;;;;;;;7331397;19;153979;-16
2021/10/10 20:18:43;;;;;;;0.70;0.70;;;;;;;;;;7333219;19;153631;-19
2021/10/10 20:21:11;;;;;;;1.00;0.90;;;;;;;;;;7332985;19;161889;-14
2021/10/10 20:23:55;;;;;;;1.55;0.80;;;;;;;;;;7332617;19;162425;-15
2021/10/10 20:26:23;;;;;;;0.70;0.70;;;;;;;;;;7332655;19;153964;-17
2021/10/10 20:28:51;;;;;;;0.88;0.88;;;;;;;;;;7333031;19;153573;-14
2021/10/10 20:31:19;;;;;;;0.90;0.90;;;;;;;;;;7332301;19;162057;-16
2021/10/10 20:33:47;;;;;;;0.88;0.88;;;;;;;;;;7330948;19;162438;-15
2021/10/10 20:36:15;;;;;;;0.80;0.80;;;;;;;;;;7333158;19;153978;-16
2021/10/10 20:38:44;;;;;;;1.00;1.00;;;;;;;;;;7332178;19;153533;-16
2021/10/10 20:41:12;;;;;;;1.05;0.80;;;;;;;;;;7331396;19;162066;-13
2021/10/10 20:43:40;;;;;;;0.90;0.90;;;;;;;;;;7331431;19;162358;-15
2021/10/10 20:46:08;;;;;;;0.77;0.77;;;;;;;;;;7332179;19;154016;-15
2021/10/10 20:48:37;;;;;;;0.95;0.95;;;;;;;;;;7331497;19;153857;-16
2021/10/10 20:51:07;;;;;;;0.80;0.80;;;;;;;;;;7332074;19;162042;-16
2021/10/10 20:53:35;;;;;;;0.70;0.70;;;;;;;;;;7330042;19;162724;-13
2021/10/10 20:56:04;;;;;;;1.10;0.70;;;;;;;;;;7331593;19;153991;-14
2021/10/10 20:58:33;;;;;;;0.70;0.70;;;;;;;;;;7328866;19;153486;-13
2021/10/10 21:01:02;;;;;;;0.88;0.63;;;;;;;;;;7319284;19;161921;-16
2021/10/10 21:03:30;;;;;;;0.60;0.60;;;;;;;;;;7327848;19;162452;-16
2021/10/10 21:05:59;;;;;;;0.82;0.82;;;;;;;;;;7331220;19;153980;-15
2021/10/10 21:08:30;;;;;;;0.65;0.65;;;;;;;;;;7331088;19;153596;-17
2021/10/10 21:10:59;;;;;;;0.80;0.70;;;;;;;;;;7331033;19;161893;-17
2021/10/10 21:13:28;;;;;;;0.60;0.60;;;;;;;;;;7330084;19;162376;-16
2021/10/10 21:15:56;;;;;;;0.70;0.70;;;;;;;;;;7331837;19;153960;-17
2021/10/10 21:18:24;;;;;;;0.80;0.70;;;;;;;;;;7329721;19;153535;-16
2021/10/10 21:20:53;;;;;;;0.68;0.68;;;;;;;;;;7329443;19;162277;-14
2021/10/10 21:23:20;;;;;;;0.77;0.77;;;;;;;;;;7331180;19;162193;-16
2021/10/10 21:25:49;;;;;;;0.60;0.60;;;;;;;;;;7331968;19;154721;-14
2021/10/10 21:31:15;;;;;;;0.73;0.73;;;;;;;;;;7329611;19;161803;-17
2021/10/10 21:36:11;;;;;;;0.70;0.70;;;;;;;;;;7329951;19;154024;-18
2021/10/10 21:38:40;;;;;;;0.70;0.70;;;;;;;;;;7330283;19;153673;-15
2021/10/10 21:41:10;;;;;;;0.70;0.70;;;;;;;;;;7329125;19;162144;-16
2021/10/10 21:43:38;;;;;;;0.70;0.70;;;;;;;;;;7330024;19;162530;-15
2021/10/10 21:46:06;;;;;;;0.60;0.60;;;;;;;;;;7330817;19;154017;-13
2021/10/10 21:48:38;;;;;;;0.70;0.70;;;;;;;;;;7330991;19;153708;-15
2021/10/10 21:51:06;;;;;;;0.68;0.68;;;;;;;;;;7330008;19;161794;-15
2021/10/10 21:53:41;;;;;;;0.70;0.70;;;;;;;;;;7329471;19;162812;-14
2021/10/10 21:56:14;;;;;;;0.70;0.70;;;;;;;;;;7330557;19;153946;-16
2021/10/10 21:58:42;;;;;;;0.70;0.70;;;;;;;;;;7337781;19;153725;-14
2021/10/10 22:01:10;;;;;;;0.80;0.80;;;;;;;;;;7335389;19;161824;-14
2021/10/10 22:03:38;;;;;;;0.70;0.70;;;;;;;;;;7336981;19;162523;-14
2021/10/10 22:06:07;;;;;;;0.60;0.60;;;;;;;;;;7337206;19;153956;-14
2021/10/10 22:08:35;;;;;;;0.70;0.70;;;;;;;;;;7337255;19;153280;-16
2021/10/10 22:11:05;;;;;;;0.80;0.80;;;;;;;;;;7336581;19;162072;-14
2021/10/10 22:13:33;;;;;;;0.68;0.68;;;;;;;;;;7336418;19;162341;-13
2021/10/10 22:16:01;;;;;;;0.70;0.70;;;;;;;;;;7337363;19;153959;-15
2021/10/10 22:18:30;;;;;;;0.60;0.60;;;;;;;;;;7335498;19;153589;-15
2021/10/10 22:20:58;;;;;;;1.35;0.70;;;;;;;;;;7336033;19;161950;-17
2021/10/10 22:23:30;;;;;;;0.63;0.63;;;;;;;;;;7327757;19;162407;-16
2021/10/10 22:31:04;;;;;;;0.82;0.82;;;;;;;;;;7334551;19;161877;-14
2021/10/10 22:33:32;;;;;;;0.65;0.65;;;;;;;;;;7333490;19;162573;-16
2021/10/10 22:36:01;;;;;;;1.35;0.77;;;;;;;;;;7334208;19;154009;-17
2021/10/10 22:38:30;;;;;;;1.77;0.80;;;;;;;;;;7335571;19;153825;-15
2021/10/10 22:41:00;;;;;;;0.70;0.70;;;;;;;;;;7333671;19;161960;-14
2021/10/10 22:43:28;;;;;;;0.50;0.50;;;;;;;;;;7335425;19;162538;-13
2021/10/10 22:45:55;;;;;;;0.70;0.70;;;;;;;;;;7334880;19;155425;-13
2021/10/10 22:48:23;;;;;;;0.70;0.70;;;;;;;;;;7335161;19;153688;-14
2021/10/10 22:50:51;;;;;;;0.95;0.70;;;;;;;;;;7332055;19;161830;-14
2021/10/10 22:53:19;;;;;;;0.70;0.70;;;;;;;;;;7334958;19;162558;-14
2021/10/10 22:55:47;;;;;;;0.60;0.60;;;;;;;;;;7332948;19;154184;-14
2021/10/10 22:58:15;;;;;;;0.70;0.70;;;;;;;;;;7334695;19;153527;-17
2021/10/10 23:00:44;;;;;;;0.73;0.73;;;;;;;;;;7332028;19;161940;-17
2021/10/10 23:03:14;;;;;;;0.60;0.60;;;;;;;;;;7325192;19;162593;-15
2021/10/10 23:05:43;;;;;;;0.70;0.70;;;;;;;;;;7329800;19;154292;-15
2021/10/10 23:08:11;;;;;;;0.50;0.50;;;;;;;;;;7335037;19;153636;-16
2021/10/10 23:10:39;;;;;;;0.60;0.60;;;;;;;;;;7330995;19;161879;-15
2021/10/10 23:13:07;;;;;;;1.27;0.70;;;;;;;;;;7333594;19;162373;-15
2021/10/10 23:15:35;;;;;;;0.60;0.60;;;;;;;;;;7328710;19;153973;-16
2021/10/10 23:18:03;;;;;;;0.60;0.60;;;;;;;;;;7331470;19;153529;-17
2021/10/10 23:20:31;;;;;;;0.50;0.50;;;;;;;;;;7330578;19;161841;-13
2021/10/10 23:22:59;;;;;;;0.88;0.77;;;;;;;;;;7328428;19;162421;-15
2021/10/10 23:25:27;;;;;;;0.80;0.80;;;;;;;;;;7334266;19;153968;-14
2021/10/10 23:27:54;;;;;;;0.47;0.47;;;;;;;;;;7331355;19;153528;-15
2021/10/10 23:30:22;;;;;;;0.70;0.70;;;;;;;;;;7326004;19;162031;-15
2021/10/10 23:32:50;;;;;;;0.57;0.50;;;;;;;;;;7331699;19;162526;-15
2021/10/10 23:35:18;;;;;;;0.50;0.50;;;;;;;;;;7328862;19;153994;-15
2021/10/10 23:37:46;;;;;;;0.65;0.65;;;;;;;;;;7330484;19;153492;-14
2021/10/10 23:40:14;;;;;;;0.60;0.60;;;;;;;;;;7330158;19;161928;-13
2021/10/10 23:42:42;;;;;;;0.70;0.70;;;;;;;;;;7328523;19;162653;-13
2021/10/10 23:45:10;;;;;;;0.65;0.65;;;;;;;;;;7330417;19;154071;-15
2021/10/10 23:47:38;;;;;;;0.75;0.70;;;;;;;;;;7329225;19;153629;-14
2021/10/10 23:50:07;;;;;;;0.50;0.50;;;;;;;;;;7331960;19;161860;-13
2021/10/10 23:52:35;;;;;;;0.70;0.70;;;;;;;;;;7330205;19;162434;-15
2021/10/10 23:55:04;;;;;;;0.90;0.70;;;;;;;;;;7327185;19;154112;-13
2021/10/10 23:57:32;;;;;;;1.23;0.70;;;;;;;;;;7330383;19;154016;-14
